LSME - Emmen, Switzerland
Distance from HB9FEE: SW 14km
Updated: Sat, 23-Mar-2019 11:50am CET
Clear
Clear
 Wind from NNE
Wind: NNE 6 km/h
Temperature: 15°C
Dew Point: 3°C
Humidity: 45%
Barometer: 1028 hPa
Clouds: Clear
Visibility: 10 km
2019/03/23 10:50 LSME 231050Z AUTO 03003KT 310V080 9999NDV NCD 15/03 Q1028 RMK
LSZC - Buochs, Switzerland
Distance from HB9FEE: S 25km
Updated: Sat, 23-Mar-2019 11:50am CET
Clear
Clear
 Wind from ENE
Wind: ENE 6 km/h
Temperature: 13°C
Dew Point: 0°C
Humidity: 41%
Barometer: 1028 hPa
Summary: Clear
Visibility: greater than 10 km
2019/03/23 10:50 LSZC 231050Z AUTO 07003KT CAVOK 13/00 Q1028
 
LSMA - Alpnach, Switzerland
Distance from HB9FEE: SSW 29km
Updated: Sat, 23-Mar-2019 11:50am CET
Clear
Clear
 Wind from N
Wind: N 6 km/h
Temperature: 12°C
Dew Point: 1°C
Humidity: 47%
Barometer: 1028 hPa
Clouds: Clear
Visibility: 10 km
2019/03/23 10:50 LSMA 231050Z AUTO 01003KT 330V070 9999NDV NCD 12/01 Q1028 RMK
LSMD - Dubendorf, Switzerland
Distance from HB9FEE: NE 29km
Updated: Fri, 22-Mar-2019 4:50pm CET
NOT Current
Clear
Clear
 Wind from calm
Wind: Calm
Temperature: 18°C
Dew Point: -3°C
Humidity: 24%
Barometer: 1028 hPa
Summary: Clear
Visibility: greater than 10 km
2019/03/22 15:50 LSMD 221550Z 00000KT CAVOK 18/M03 Q1028 RMK BLU
 
LSZH - Zurich-Kloten (a, Switzerland
Distance from HB9FEE: NNE 33km
Updated: Sat, 23-Mar-2019 11:50am CET
Clear
Clear
 Wind from varies
Wind: varies 4 km/h
Temperature: 15°C
Dew Point: 2°C
Humidity: 42%
Barometer: 1028 hPa
Summary: Clear
Visibility: greater than 10 km
2019/03/23 10:50 LSZH 231050Z VRB02KT CAVOK 15/02 Q1028 NOSIG
LSMM - Meiringen, Switzerland
Distance from HB9FEE: SSW 54km
Updated: Sat, 23-Mar-2019 11:50am CET
Clear
Clear
 Wind from varies
Wind: varies 6 km/h
Temperature: 15°C
Dew Point: -2°C
Humidity: 31%
Barometer: 1027 hPa
Clouds: Clear
Visibility: 10 km
2019/03/23 10:50 LSMM 231050Z AUTO VRB03KT 9999NDV NCD 15/M02 Q1027 RMK
 
LSZB - Bern/Belp, Switzerland
Distance from HB9FEE: WSW 76km
Updated: Sat, 23-Mar-2019 11:50am CET
Clear
Clear
 Wind from varies
Wind: varies 6 km/h
Temperature: 15°C
Dew Point: 1°C
Humidity: 39%
Barometer: 1027 hPa
Summary: Clear
Visibility: greater than 10 km
2019/03/23 10:50 LSZB 231050Z VRB03KT CAVOK 15/01 Q1027 NOSIG
LSZG - Grenchen, Switzerland
Distance from HB9FEE: W 76km
Updated: Sat, 23-Mar-2019 11:50am CET
Clear
Clear
 Wind from varies
Wind: varies 2 km/h
Temperature: 14°C
Dew Point: 2°C
Humidity: 44%
Barometer: 1028 hPa
Summary: Clear
Visibility: greater than 10 km
2019/03/23 10:50 LSZG 231050Z VRB01KT CAVOK 14/02 Q1028 NOSIG
 
LFSB - Bale/Mulhouse, France
Distance from HB9FEE: NW 82km
Updated: Sat, 23-Mar-2019 12:00pm CET
Clear
Clear
 Wind from varies
Wind: varies 4 km/h
Temperature: 18°C
Dew Point: 4°C
Humidity: 40%
Barometer: 1027 hPa
Summary: Clear
Visibility: greater than 10 km
2019/03/23 11:00 LFSB 231100Z VRB02KT CAVOK 18/04 Q1027 NOSIG
LSZR - Rheineck/Altenrh, Switzerland
Distance from HB9FEE: ENE 92km
Updated: Sat, 23-Mar-2019 11:50am CET
Clear
Clear
 Wind from W
Wind: W 9 km/h
Temperature: 9°C
Wind Chill: 7°C
Dew Point: 3°C
Humidity: 66%
Barometer: 1028 hPa
Summary: Clear
Visibility: greater than 10 km
2019/03/23 10:50 LSZR 231050Z 28005KT CAVOK 09/03 Q1028 NOSIG RMK E
 
LSZL - Locarno, Switzerland
Distance from HB9FEE: SSE 119km
Updated: Sat, 23-Mar-2019 11:50am CET
Clear
Clear
 Wind from SW
Wind: SW 6 km/h
Temperature: 16°C
Dew Point: -1°C
Humidity: 31%
Barometer: 1026 hPa
Clouds: Clear
Visibility: 10 km
2019/03/23 10:50 LSZL 231050Z AUTO 23003KT 150V290 9999NDV NCD 16/M01 Q1026 RMK
LSMP - Payerne (mil/Aut, Switzerland
Distance from HB9FEE: WSW 121km
Updated: Sat, 23-Mar-2019 11:50am CET
Clear
Clear
 Wind from varies
Wind: varies 4 km/h
Temperature: 13°C
Dew Point: 4°C
Humidity: 55%
Barometer: 1028 hPa
Summary: Clear
Visibility: greater than 10 km
2019/03/23 10:50 LSMP 231050Z VRB02KT CAVOK 13/04 Q1028 RMK BLU
 
LSGC - Les Eplatures, Switzerland
Distance from HB9FEE: W 123km
Updated: Sat, 23-Mar-2019 11:50am CET
Clear
Clear
 Wind from NNE
Wind: NNE 7 km/h
Temperature: 12°C
Dew Point: -3°C
Humidity: 35%
Barometer: 1028 hPa
Summary: Clear
Visibility: greater than 10 km
2019/03/23 10:50 LSGC 231050Z 02004KT 350V060 CAVOK 12/M03 Q1028
LSZS - Samedan, Switzerland
Distance from HB9FEE: ESE 133km
Updated: Sat, 23-Mar-2019 11:50am CET
Clear
Clear
 Wind from E
Wind: E 2 km/h
Temperature: 6°C
Dew Point: -10°C
Humidity: 31%
Barometer: 1028 hPa
Summary: Clear
Visibility: greater than 10 km
2019/03/23 10:50 LSZS 231050Z 08001KT CAVOK 06/M10 Q1028 RMK I
 
LSGS - Sion (mil/Civ/Au, Switzerland
Distance from HB9FEE: SW 137km
Updated: Sat, 23-Mar-2019 11:50am CET
Clear
Clear
 Wind from varies
Wind: varies 2 km/h
Temperature: 15°C
Dew Point: -5°C
Humidity: 25%
Barometer: 1027 hPa
Summary: Clear
Visibility: greater than 10 km
2019/03/23 10:50 LSGS 231050Z VRB01KT CAVOK 15/M05 Q1027
LSZA - Lugano (pvt/Aut), Switzerland
Distance from HB9FEE: SSE 138km
Updated: Sat, 23-Mar-2019 11:50am CET
Clear
Clear
 Wind from SSW
Wind: SSW 7 km/h
Temperature: 16°C
Dew Point: 2°C
Humidity: 39%
Barometer: 1026 hPa
Summary: Clear
Visibility: greater than 10 km
2019/03/23 10:50 LSZA 231050Z 20004KT CAVOK 16/02 Q1026 NOSIG